Estación Meteorológica Peña el Pijo (Robertgarden) [ 11/16/19 03:05:26 CET ]

Fecha Hora Presion(HPa) Temp (°C) Humedad % Rocio (°C) Viento ( m/s) Direccion Lluvia 1Hora(mm) Lluvia 24H(mm) LLuvia Total(mm)
2019-Jun-10 01:01:55 1009.500 12.9 60 5.3       7.77 325.82
2019-Jun-10 02:01:31 1009.400 13.0 60 5.4       7.77 325.82
2019-Jun-10 03:01:41 1009.100 11.9 62 4.8       7.77 325.82
2019-Jun-10 04:10:04 1008.800 11.6 60 4.1       7.77 325.82
2019-Jun-10 05:01:39 1008.600 10.1 61 2.9       7.77 325.82
2019-Jun-10 06:01:38 1008.400 8.2 69 2.9       7.77 325.82
2019-Jun-10 07:01:34 1008.300 7.5 73 3.0       7.77 325.82
2019-Jun-10 08:01:30 1008.500 11.0 72 6.2       7.77 325.82
2019-Jun-10 09:01:38 1008.700 16.2 52 6.3       7.77 325.82
2019-Jun-10 10:01:37 1008.800 19.6 43 6.6       7.77 325.82
2019-Jun-10 11:01:43 1008.300 22.4 35 6.1         325.82
2019-Jun-10 12:01:46 1008.100 23.9 31 5.7         325.82
2019-Jun-10 13:01:45 1007.900 24.6 31 6.4         325.82
2019-Jun-10 14:01:48 1007.400 27.6 26 6.2         325.82
2019-Jun-10 15:01:54 1006.700 29.5 23 6.0         325.82
2019-Jun-10 16:01:45 1006.000 30.1 22 5.9         325.82
2019-Jun-10 17:01:52 1005.400 30.8 23 7.1         325.82
2019-Jun-10 18:01:41 1005.200 29.2 23 5.7         325.82
2019-Jun-10 19:01:57 1005.300 27.6 24 5.0 2.1 NNW     325.82
2019-Jun-10 20:01:54 1005.600 23.9 28 4.2         325.82
2019-Jun-10 21:01:52 1005.800 20.9 29 2.1         325.82
2019-Jun-10 22:01:51 1006.300 17.2 37 2.3         325.82
2019-Jun-10 23:01:53 1006.800 13.9 46 2.4         325.82

Temperatura Máxima:30°    Temperatura Mínima:
Presión Máxima:1009.500 Hpa    Presión Mínima:1005.200 Hpa


Volver